sensor_id;sensor_type;location;lat;lon;timestamp;P1;durP1;ratioP1;P2;durP2;ratioP2
13343;SDS011;6741;48.964;9.406;2022-09-25T00:01:53;21.17;;;19.07;;
13343;SDS011;6741;48.964;9.406;2022-09-25T00:04:20;21.60;;;19.30;;
13343;SDS011;6741;48.964;9.406;2022-09-25T00:06:47;20.63;;;18.53;;
13343;SDS011;6741;48.964;9.406;2022-09-25T00:09:14;20.87;;;18.80;;
13343;SDS011;6741;48.964;9.406;2022-09-25T00:11:44;19.97;;;17.97;;
13343;SDS011;6741;48.964;9.406;2022-09-25T00:14:12;19.87;;;17.27;;
13343;SDS011;6741;48.964;9.406;2022-09-25T00:16:39;21.37;;;17.90;;
13343;SDS011;6741;48.964;9.406;2022-09-25T00:19:19;20.17;;;17.93;;
13343;SDS011;6741;48.964;9.406;2022-09-25T00:22:04;20.07;;;17.90;;
13343;SDS011;6741;48.964;9.406;2022-09-25T00:24:31;20.30;;;18.30;;
13343;SDS011;6741;48.964;9.406;2022-09-25T00:26:58;20.37;;;18.27;;
13343;SDS011;6741;48.964;9.406;2022-09-25T00:29:27;21.20;;;19.00;;
13343;SDS011;6741;48.964;9.406;2022-09-25T00:31:55;20.97;;;18.43;;
13343;SDS011;6741;48.964;9.406;2022-09-25T00:34:22;19.37;;;17.47;;
13343;SDS011;6741;48.964;9.406;2022-09-25T00:36:49;21.13;;;19.03;;
13343;SDS011;6741;48.964;9.406;2022-09-25T00:39:16;21.17;;;18.97;;
13343;SDS011;6741;48.964;9.406;2022-09-25T00:41:43;20.83;;;18.80;;
13343;SDS011;6741;48.964;9.406;2022-09-25T00:47:22;20.80;;;18.60;;
13343;SDS011;6741;48.964;9.406;2022-09-25T00:49:53;19.90;;;17.93;;
13343;SDS011;6741;48.964;9.406;2022-09-25T00:52:23;22.30;;;20.10;;
13343;SDS011;6741;48.964;9.406;2022-09-25T00:54:52;21.40;;;19.20;;
13343;SDS011;6741;48.964;9.406;2022-09-25T00:57:24;19.87;;;17.87;;
13343;SDS011;6741;48.964;9.406;2022-09-25T01:00:00;21.87;;;19.43;;
13343;SDS011;6741;48.964;9.406;2022-09-25T01:02:35;21.03;;;18.90;;
13343;SDS011;6741;48.964;9.406;2022-09-25T01:05:07;22.27;;;19.97;;
13343;SDS011;6741;48.964;9.406;2022-09-25T01:07:36;21.50;;;19.27;;
13343;SDS011;6741;48.964;9.406;2022-09-25T01:10:06;22.17;;;19.83;;
13343;SDS011;6741;48.964;9.406;2022-09-25T01:12:34;22.37;;;20.00;;
13343;SDS011;6741;48.964;9.406;2022-09-25T01:15:06;22.10;;;19.70;;
13343;SDS011;6741;48.964;9.406;2022-09-25T01:17:37;22.83;;;20.53;;
13343;SDS011;6741;48.964;9.406;2022-09-25T01:20:13;27.97;;;23.63;;
13343;SDS011;6741;48.964;9.406;2022-09-25T01:22:50;26.20;;;23.00;;
13343;SDS011;6741;48.964;9.406;2022-09-25T01:25:33;27.70;;;24.80;;
13343;SDS011;6741;48.964;9.406;2022-09-25T01:28:14;29.13;;;25.40;;
13343;SDS011;6741;48.964;9.406;2022-09-25T01:30:56;32.00;;;27.00;;
13343;SDS011;6741;48.964;9.406;2022-09-25T01:33:30;30.37;;;23.70;;
13343;SDS011;6741;48.964;9.406;2022-09-25T01:36:01;33.87;;;25.67;;
13343;SDS011;6741;48.964;9.406;2022-09-25T01:38:37;33.83;;;26.30;;
13343;SDS011;6741;48.964;9.406;2022-09-25T01:41:08;34.17;;;25.73;;
13343;SDS011;6741;48.964;9.406;2022-09-25T01:43:40;25.27;;;22.57;;
13343;SDS011;6741;48.964;9.406;2022-09-25T01:46:14;27.50;;;22.83;;
13343;SDS011;6741;48.964;9.406;2022-09-25T01:48:44;24.77;;;21.60;;
13343;SDS011;6741;48.964;9.406;2022-09-25T01:51:14;26.70;;;21.97;;
13343;SDS011;6741;48.964;9.406;2022-09-25T01:54:37;26.77;;;21.83;;
13343;SDS011;6741;48.964;9.406;2022-09-25T01:57:09;24.23;;;21.00;;
13343;SDS011;6741;48.964;9.406;2022-09-25T01:59:39;26.90;;;21.77;;
13343;SDS011;6741;48.964;9.406;2022-09-25T02:02:11;24.40;;;21.53;;
13343;SDS011;6741;48.964;9.406;2022-09-25T02:04:44;26.60;;;21.53;;
13343;SDS011;6741;48.964;9.406;2022-09-25T02:07:15;27.13;;;21.93;;
13343;SDS011;6741;48.964;9.406;2022-09-25T02:09:47;25.23;;;21.67;;
13343;SDS011;6741;48.964;9.406;2022-09-25T02:12:18;25.73;;;21.70;;
13343;SDS011;6741;48.964;9.406;2022-09-25T02:14:50;25.27;;;22.47;;
13343;SDS011;6741;48.964;9.406;2022-09-25T02:17:22;25.97;;;22.20;;
13343;SDS011;6741;48.964;9.406;2022-09-25T02:20:12;26.07;;;21.93;;
13343;SDS011;6741;48.964;9.406;2022-09-25T02:22:53;25.57;;;22.40;;
13343;SDS011;6741;48.964;9.406;2022-09-25T02:25:24;24.30;;;20.23;;
13343;SDS011;6741;48.964;9.406;2022-09-25T02:28:00;24.93;;;21.80;;
13343;SDS011;6741;48.964;9.406;2022-09-25T02:30:27;31.73;;;21.47;;
13343;SDS011;6741;48.964;9.406;2022-09-25T02:32:55;26.73;;;22.43;;
13343;SDS011;6741;48.964;9.406;2022-09-25T02:35:22;26.63;;;22.60;;
13343;SDS011;6741;48.964;9.406;2022-09-25T02:37:50;25.93;;;21.93;;
13343;SDS011;6741;48.964;9.406;2022-09-25T02:40:17;26.23;;;22.43;;
13343;SDS011;6741;48.964;9.406;2022-09-25T02:42:49;28.83;;;22.37;;
13343;SDS011;6741;48.964;9.406;2022-09-25T02:45:26;25.97;;;21.43;;
13343;SDS011;6741;48.964;9.406;2022-09-25T02:48:05;28.97;;;23.53;;
13343;SDS011;6741;48.964;9.406;2022-09-25T02:50:40;26.40;;;21.87;;
13343;SDS011;6741;48.964;9.406;2022-09-25T02:53:14;28.10;;;22.17;;
13343;SDS011;6741;48.964;9.406;2022-09-25T02:55:47;29.37;;;23.73;;
13343;SDS011;6741;48.964;9.406;2022-09-25T02:58:18;28.60;;;23.53;;
13343;SDS011;6741;48.964;9.406;2022-09-25T03:00:49;28.67;;;23.30;;
13343;SDS011;6741;48.964;9.406;2022-09-25T03:03:20;31.60;;;25.70;;
13343;SDS011;6741;48.964;9.406;2022-09-25T03:05:50;29.60;;;24.50;;
13343;SDS011;6741;48.964;9.406;2022-09-25T03:08:20;27.93;;;22.83;;
13343;SDS011;6741;48.964;9.406;2022-09-25T03:11:03;29.43;;;24.27;;
13343;SDS011;6741;48.964;9.406;2022-09-25T03:13:31;29.70;;;24.07;;
13343;SDS011;6741;48.964;9.406;2022-09-25T03:15:59;28.80;;;23.87;;
13343;SDS011;6741;48.964;9.406;2022-09-25T03:18:29;31.23;;;25.23;;
13343;SDS011;6741;48.964;9.406;2022-09-25T03:20:56;30.43;;;24.43;;
13343;SDS011;6741;48.964;9.406;2022-09-25T03:23:23;28.67;;;22.93;;
13343;SDS011;6741;48.964;9.406;2022-09-25T03:25:51;28.37;;;23.87;;
13343;SDS011;6741;48.964;9.406;2022-09-25T03:28:19;31.03;;;23.63;;
13343;SDS011;6741;48.964;9.406;2022-09-25T03:30:57;30.77;;;23.87;;
13343;SDS011;6741;48.964;9.406;2022-09-25T03:33:25;29.50;;;24.23;;
13343;SDS011;6741;48.964;9.406;2022-09-25T03:36:08;31.70;;;25.70;;
13343;SDS011;6741;48.964;9.406;2022-09-25T03:38:36;30.90;;;25.03;;
13343;SDS011;6741;48.964;9.406;2022-09-25T03:41:04;33.13;;;26.37;;
13343;SDS011;6741;48.964;9.406;2022-09-25T03:43:33;30.13;;;25.03;;
13343;SDS011;6741;48.964;9.406;2022-09-25T03:46:01;31.07;;;24.97;;
13343;SDS011;6741;48.964;9.406;2022-09-25T03:48:28;34.43;;;27.60;;
13343;SDS011;6741;48.964;9.406;2022-09-25T03:50:55;31.37;;;26.33;;
13343;SDS011;6741;48.964;9.406;2022-09-25T03:53:24;31.03;;;24.40;;
13343;SDS011;6741;48.964;9.406;2022-09-25T03:55:51;29.90;;;24.87;;
13343;SDS011;6741;48.964;9.406;2022-09-25T03:58:18;29.70;;;24.03;;
13343;SDS011;6741;48.964;9.406;2022-09-25T04:00:46;30.47;;;24.73;;
13343;SDS011;6741;48.964;9.406;2022-09-25T04:03:13;28.83;;;24.07;;
13343;SDS011;6741;48.964;9.406;2022-09-25T04:05:40;29.60;;;24.70;;
13343;SDS011;6741;48.964;9.406;2022-09-25T04:08:07;29.03;;;24.23;;
13343;SDS011;6741;48.964;9.406;2022-09-25T04:10:37;29.63;;;23.90;;
13343;SDS011;6741;48.964;9.406;2022-09-25T04:13:05;32.07;;;24.30;;
13343;SDS011;6741;48.964;9.406;2022-09-25T04:15:32;30.60;;;23.27;;
13343;SDS011;6741;48.964;9.406;2022-09-25T04:17:59;29.93;;;24.57;;
13343;SDS011;6741;48.964;9.406;2022-09-25T04:20:26;27.80;;;23.63;;
13343;SDS011;6741;48.964;9.406;2022-09-25T04:22:54;31.03;;;25.03;;
13343;SDS011;6741;48.964;9.406;2022-09-25T04:25:20;31.07;;;24.53;;
13343;SDS011;6741;48.964;9.406;2022-09-25T04:27:50;30.60;;;24.23;;
13343;SDS011;6741;48.964;9.406;2022-09-25T04:30:18;31.93;;;24.80;;
13343;SDS011;6741;48.964;9.406;2022-09-25T04:32:45;32.43;;;25.90;;
13343;SDS011;6741;48.964;9.406;2022-09-25T04:35:44;31.60;;;26.37;;
13343;SDS011;6741;48.964;9.406;2022-09-25T04:38:11;36.57;;;27.23;;
13343;SDS011;6741;48.964;9.406;2022-09-25T04:40:38;37.57;;;26.50;;
13343;SDS011;6741;48.964;9.406;2022-09-25T04:43:06;30.13;;;23.77;;
13343;SDS011;6741;48.964;9.406;2022-09-25T04:45:34;33.73;;;26.17;;
13343;SDS011;6741;48.964;9.406;2022-09-25T04:48:02;31.33;;;24.83;;
13343;SDS011;6741;48.964;9.406;2022-09-25T04:50:30;38.87;;;26.73;;
13343;SDS011;6741;48.964;9.406;2022-09-25T04:52:57;33.83;;;25.23;;
13343;SDS011;6741;48.964;9.406;2022-09-25T04:55:25;32.37;;;25.13;;
13343;SDS011;6741;48.964;9.406;2022-09-25T04:57:52;34.77;;;26.03;;
13343;SDS011;6741;48.964;9.406;2022-09-25T05:00:22;31.73;;;25.47;;
13343;SDS011;6741;48.964;9.406;2022-09-25T05:02:50;31.77;;;24.93;;
13343;SDS011;6741;48.964;9.406;2022-09-25T05:05:17;30.50;;;23.83;;
13343;SDS011;6741;48.964;9.406;2022-09-25T05:07:50;34.57;;;27.43;;
13343;SDS011;6741;48.964;9.406;2022-09-25T05:10:18;32.50;;;25.87;;
13343;SDS011;6741;48.964;9.406;2022-09-25T05:12:45;35.77;;;26.00;;
13343;SDS011;6741;48.964;9.406;2022-09-25T05:15:13;35.47;;;27.30;;
13343;SDS011;6741;48.964;9.406;2022-09-25T05:17:41;36.00;;;27.63;;
13343;SDS011;6741;48.964;9.406;2022-09-25T05:20:08;40.57;;;28.57;;
13343;SDS011;6741;48.964;9.406;2022-09-25T05:22:35;37.23;;;28.30;;
13343;SDS011;6741;48.964;9.406;2022-09-25T05:25:02;35.53;;;26.30;;
13343;SDS011;6741;48.964;9.406;2022-09-25T05:27:31;40.53;;;27.83;;
13343;SDS011;6741;48.964;9.406;2022-09-25T05:29:58;35.20;;;27.43;;
13343;SDS011;6741;48.964;9.406;2022-09-25T05:32:25;35.77;;;26.33;;
13343;SDS011;6741;48.964;9.406;2022-09-25T05:34:53;37.70;;;28.30;;
13343;SDS011;6741;48.964;9.406;2022-09-25T05:37:20;35.40;;;26.13;;
13343;SDS011;6741;48.964;9.406;2022-09-25T05:39:48;35.93;;;27.37;;
13343;SDS011;6741;48.964;9.406;2022-09-25T05:42:15;38.40;;;27.73;;
13343;SDS011;6741;48.964;9.406;2022-09-25T05:44:43;35.10;;;26.90;;
13343;SDS011;6741;48.964;9.406;2022-09-25T05:47:10;36.83;;;27.57;;
13343;SDS011;6741;48.964;9.406;2022-09-25T05:49:37;35.93;;;27.70;;
13343;SDS011;6741;48.964;9.406;2022-09-25T05:52:06;35.13;;;25.80;;
13343;SDS011;6741;48.964;9.406;2022-09-25T05:54:33;37.63;;;29.60;;
13343;SDS011;6741;48.964;9.406;2022-09-25T05:56:59;34.73;;;27.33;;
13343;SDS011;6741;48.964;9.406;2022-09-25T05:59:26;34.10;;;27.83;;
13343;SDS011;6741;48.964;9.406;2022-09-25T06:01:53;32.13;;;25.73;;
13343;SDS011;6741;48.964;9.406;2022-09-25T06:04:20;34.43;;;25.53;;
13343;SDS011;6741;48.964;9.406;2022-09-25T06:06:47;31.40;;;24.87;;
13343;SDS011;6741;48.964;9.406;2022-09-25T06:09:15;31.17;;;25.30;;
13343;SDS011;6741;48.964;9.406;2022-09-25T06:11:42;31.63;;;25.60;;
13343;SDS011;6741;48.964;9.406;2022-09-25T06:14:11;30.17;;;25.10;;
13343;SDS011;6741;48.964;9.406;2022-09-25T06:16:39;33.47;;;25.07;;
13343;SDS011;6741;48.964;9.406;2022-09-25T06:19:06;31.70;;;25.63;;
13343;SDS011;6741;48.964;9.406;2022-09-25T06:21:33;32.30;;;24.10;;
13343;SDS011;6741;48.964;9.406;2022-09-25T06:24:00;37.67;;;27.70;;
13343;SDS011;6741;48.964;9.406;2022-09-25T06:26:29;31.90;;;25.53;;
13343;SDS011;6741;48.964;9.406;2022-09-25T06:28:58;29.87;;;23.87;;
13343;SDS011;6741;48.964;9.406;2022-09-25T06:31:25;30.13;;;24.53;;
13343;SDS011;6741;48.964;9.406;2022-09-25T06:33:51;30.83;;;24.23;;
13343;SDS011;6741;48.964;9.406;2022-09-25T06:36:18;30.23;;;24.20;;
13343;SDS011;6741;48.964;9.406;2022-09-25T06:38:46;30.30;;;24.07;;
13343;SDS011;6741;48.964;9.406;2022-09-25T06:41:14;27.17;;;23.03;;
13343;SDS011;6741;48.964;9.406;2022-09-25T06:43:42;28.80;;;22.30;;
13343;SDS011;6741;48.964;9.406;2022-09-25T06:46:09;30.23;;;24.70;;
13343;SDS011;6741;48.964;9.406;2022-09-25T06:48:36;30.50;;;24.20;;
13343;SDS011;6741;48.964;9.406;2022-09-25T06:51:03;32.30;;;24.17;;
13343;SDS011;6741;48.964;9.406;2022-09-25T06:53:32;29.43;;;23.43;;
13343;SDS011;6741;48.964;9.406;2022-09-25T06:56:00;31.27;;;24.20;;
13343;SDS011;6741;48.964;9.406;2022-09-25T06:58:27;30.27;;;24.50;;
13343;SDS011;6741;48.964;9.406;2022-09-25T07:00:56;30.47;;;24.63;;
13343;SDS011;6741;48.964;9.406;2022-09-25T07:03:24;30.63;;;23.53;;
13343;SDS011;6741;48.964;9.406;2022-09-25T07:06:08;31.10;;;23.97;;
13343;SDS011;6741;48.964;9.406;2022-09-25T07:08:36;28.83;;;23.33;;
13343;SDS011;6741;48.964;9.406;2022-09-25T07:11:04;30.33;;;24.47;;
13343;SDS011;6741;48.964;9.406;2022-09-25T07:13:32;29.57;;;23.20;;
13343;SDS011;6741;48.964;9.406;2022-09-25T07:16:04;28.67;;;22.73;;
13343;SDS011;6741;48.964;9.406;2022-09-25T07:18:36;27.63;;;22.07;;
13343;SDS011;6741;48.964;9.406;2022-09-25T07:21:05;23.73;;;21.07;;
13343;SDS011;6741;48.964;9.406;2022-09-25T07:23:33;26.60;;;22.27;;
13343;SDS011;6741;48.964;9.406;2022-09-25T07:26:05;23.90;;;21.03;;
13343;SDS011;6741;48.964;9.406;2022-09-25T07:28:33;25.17;;;21.10;;
13343;SDS011;6741;48.964;9.406;2022-09-25T07:31:10;25.03;;;21.27;;
13343;SDS011;6741;48.964;9.406;2022-09-25T07:33:41;24.93;;;20.60;;
13343;SDS011;6741;48.964;9.406;2022-09-25T07:36:08;25.43;;;21.10;;
13343;SDS011;6741;48.964;9.406;2022-09-25T07:38:36;23.07;;;20.20;;
13343;SDS011;6741;48.964;9.406;2022-09-25T07:41:03;22.60;;;19.33;;
13343;SDS011;6741;48.964;9.406;2022-09-25T07:43:32;21.47;;;18.77;;
13343;SDS011;6741;48.964;9.406;2022-09-25T07:45:59;22.93;;;19.83;;
13343;SDS011;6741;48.964;9.406;2022-09-25T07:48:28;23.57;;;19.47;;
13343;SDS011;6741;48.964;9.406;2022-09-25T07:50:58;21.27;;;18.90;;
13343;SDS011;6741;48.964;9.406;2022-09-25T07:53:25;18.93;;;16.93;;
13343;SDS011;6741;48.964;9.406;2022-09-25T07:55:54;20.53;;;17.93;;
13343;SDS011;6741;48.964;9.406;2022-09-25T07:58:22;21.80;;;17.43;;
13343;SDS011;6741;48.964;9.406;2022-09-25T08:00:50;20.00;;;17.30;;
13343;SDS011;6741;48.964;9.406;2022-09-25T08:03:17;18.73;;;15.33;;
13343;SDS011;6741;48.964;9.406;2022-09-25T08:05:45;19.17;;;16.17;;
13343;SDS011;6741;48.964;9.406;2022-09-25T08:08:13;18.93;;;15.47;;
13343;SDS011;6741;48.964;9.406;2022-09-25T08:10:40;17.47;;;15.57;;
13343;SDS011;6741;48.964;9.406;2022-09-25T08:13:07;16.53;;;14.83;;
13343;SDS011;6741;48.964;9.406;2022-09-25T08:15:34;17.50;;;15.70;;
13343;SDS011;6741;48.964;9.406;2022-09-25T08:18:00;18.90;;;16.23;;
13343;SDS011;6741;48.964;9.406;2022-09-25T08:20:27;15.87;;;14.27;;
13343;SDS011;6741;48.964;9.406;2022-09-25T08:22:56;17.00;;;15.30;;
13343;SDS011;6741;48.964;9.406;2022-09-25T08:25:23;14.67;;;12.93;;
13343;SDS011;6741;48.964;9.406;2022-09-25T08:27:50;15.03;;;13.40;;
13343;SDS011;6741;48.964;9.406;2022-09-25T08:30:17;15.93;;;14.23;;
13343;SDS011;6741;48.964;9.406;2022-09-25T08:32:44;16.90;;;14.30;;
13343;SDS011;6741;48.964;9.406;2022-09-25T08:35:11;17.63;;;15.07;;
13343;SDS011;6741;48.964;9.406;2022-09-25T08:37:39;17.03;;;15.23;;
13343;SDS011;6741;48.964;9.406;2022-09-25T08:40:11;15.47;;;13.87;;
13343;SDS011;6741;48.964;9.406;2022-09-25T08:42:44;16.67;;;14.97;;
13343;SDS011;6741;48.964;9.406;2022-09-25T08:45:17;15.47;;;13.30;;
13343;SDS011;6741;48.964;9.406;2022-09-25T08:48:07;14.30;;;12.83;;
13343;SDS011;6741;48.964;9.406;2022-09-25T08:50:55;14.37;;;12.87;;
13343;SDS011;6741;48.964;9.406;2022-09-25T08:53:23;13.97;;;12.23;;
13343;SDS011;6741;48.964;9.406;2022-09-25T08:55:52;13.83;;;12.37;;
13343;SDS011;6741;48.964;9.406;2022-09-25T08:58:37;13.53;;;12.13;;
13343;SDS011;6741;48.964;9.406;2022-09-25T09:01:08;14.03;;;12.40;;
13343;SDS011;6741;48.964;9.406;2022-09-25T09:03:41;13.90;;;12.13;;
13343;SDS011;6741;48.964;9.406;2022-09-25T09:06:14;14.03;;;12.50;;
13343;SDS011;6741;48.964;9.406;2022-09-25T09:08:43;13.00;;;11.70;;
13343;SDS011;6741;48.964;9.406;2022-09-25T09:11:20;12.90;;;11.57;;
13343;SDS011;6741;48.964;9.406;2022-09-25T09:13:53;12.37;;;11.07;;
13343;SDS011;6741;48.964;9.406;2022-09-25T09:16:27;12.53;;;11.23;;
13343;SDS011;6741;48.964;9.406;2022-09-25T09:18:59;12.67;;;11.30;;
13343;SDS011;6741;48.964;9.406;2022-09-25T09:21:32;12.30;;;11.00;;
13343;SDS011;6741;48.964;9.406;2022-09-25T09:24:04;11.90;;;10.70;;
13343;SDS011;6741;48.964;9.406;2022-09-25T09:26:38;12.57;;;11.37;;
13343;SDS011;6741;48.964;9.406;2022-09-25T09:29:22;13.93;;;12.43;;
13343;SDS011;6741;48.964;9.406;2022-09-25T09:32:02;12.87;;;11.57;;
13343;SDS011;6741;48.964;9.406;2022-09-25T09:34:48;14.13;;;11.93;;
13343;SDS011;6741;48.964;9.406;2022-09-25T09:37:26;13.17;;;11.90;;
13343;SDS011;6741;48.964;9.406;2022-09-25T09:40:04;13.50;;;12.10;;
13343;SDS011;6741;48.964;9.406;2022-09-25T09:42:45;15.77;;;12.93;;
13343;SDS011;6741;48.964;9.406;2022-09-25T09:45:19;15.93;;;14.23;;
13343;SDS011;6741;48.964;9.406;2022-09-25T09:47:54;14.83;;;13.33;;
13343;SDS011;6741;48.964;9.406;2022-09-25T09:50:28;15.70;;;14.10;;
13343;SDS011;6741;48.964;9.406;2022-09-25T09:53:04;15.90;;;14.13;;
13343;SDS011;6741;48.964;9.406;2022-09-25T09:55:39;16.60;;;14.80;;
13343;SDS011;6741;48.964;9.406;2022-09-25T09:58:12;16.67;;;14.87;;
13343;SDS011;6741;48.964;9.406;2022-09-25T10:00:45;16.07;;;14.57;;
13343;SDS011;6741;48.964;9.406;2022-09-25T10:03:16;17.43;;;15.27;;
13343;SDS011;6741;48.964;9.406;2022-09-25T10:05:45;17.90;;;15.90;;
13343;SDS011;6741;48.964;9.406;2022-09-25T10:08:13;16.17;;;14.57;;
13343;SDS011;6741;48.964;9.406;2022-09-25T10:10:41;17.00;;;15.30;;
13343;SDS011;6741;48.964;9.406;2022-09-25T10:13:14;17.40;;;15.37;;
13343;SDS011;6741;48.964;9.406;2022-09-25T10:15:45;17.23;;;13.87;;
13343;SDS011;6741;48.964;9.406;2022-09-25T10:18:16;14.37;;;12.93;;
13343;SDS011;6741;48.964;9.406;2022-09-25T10:20:45;16.67;;;14.90;;
13343;SDS011;6741;48.964;9.406;2022-09-25T10:23:18;15.63;;;14.03;;
13343;SDS011;6741;48.964;9.406;2022-09-25T10:25:56;16.73;;;14.83;;
13343;SDS011;6741;48.964;9.406;2022-09-25T10:28:28;18.13;;;16.23;;
13343;SDS011;6741;48.964;9.406;2022-09-25T10:30:58;17.03;;;14.03;;
13343;SDS011;6741;48.964;9.406;2022-09-25T10:33:28;17.27;;;15.47;;
13343;SDS011;6741;48.964;9.406;2022-09-25T10:35:57;16.60;;;14.63;;
13343;SDS011;6741;48.964;9.406;2022-09-25T10:38:32;17.27;;;15.00;;
13343;SDS011;6741;48.964;9.406;2022-09-25T10:41:04;17.73;;;14.93;;
13343;SDS011;6741;48.964;9.406;2022-09-25T10:43:34;16.67;;;14.97;;
13343;SDS011;6741;48.964;9.406;2022-09-25T10:46:16;16.03;;;13.83;;
13343;SDS011;6741;48.964;9.406;2022-09-25T10:49:17;15.13;;;13.60;;
13343;SDS011;6741;48.964;9.406;2022-09-25T10:52:03;15.23;;;13.73;;
13343;SDS011;6741;48.964;9.406;2022-09-25T10:54:32;15.73;;;14.03;;
13343;SDS011;6741;48.964;9.406;2022-09-25T10:57:00;17.20;;;13.53;;
13343;SDS011;6741;48.964;9.406;2022-09-25T10:59:45;14.37;;;12.87;;
13343;SDS011;6741;48.964;9.406;2022-09-25T11:02:18;14.10;;;12.60;;
13343;SDS011;6741;48.964;9.406;2022-09-25T11:04:53;16.27;;;12.67;;
13343;SDS011;6741;48.964;9.406;2022-09-25T11:07:22;16.25;;;13.30;;
13343;SDS011;6741;48.964;9.406;2022-09-25T11:09:52;13.50;;;11.10;;
13343;SDS011;6741;48.964;9.406;2022-09-25T11:12:20;11.93;;;10.73;;
13343;SDS011;6741;48.964;9.406;2022-09-25T11:14:53;14.90;;;11.37;;
13343;SDS011;6741;48.964;9.406;2022-09-25T11:17:30;11.85;;;10.63;;
13343;SDS011;6741;48.964;9.406;2022-09-25T11:20:10;13.03;;;10.53;;
13343;SDS011;6741;48.964;9.406;2022-09-25T11:22:46;13.13;;;11.53;;
13343;SDS011;6741;48.964;9.406;2022-09-25T11:25:17;13.23;;;10.90;;
13343;SDS011;6741;48.964;9.406;2022-09-25T11:27:50;12.73;;;11.43;;
13343;SDS011;6741;48.964;9.406;2022-09-25T11:30:23;13.10;;;10.25;;
13343;SDS011;6741;48.964;9.406;2022-09-25T11:32:58;11.07;;;9.97;;
13343;SDS011;6741;48.964;9.406;2022-09-25T11:35:39;11.00;;;9.90;;
13343;SDS011;6741;48.964;9.406;2022-09-25T11:38:13;12.55;;;11.25;;
13343;SDS011;6741;48.964;9.406;2022-09-25T11:41:11;13.98;;;10.95;;
13343;SDS011;6741;48.964;9.406;2022-09-25T11:43:53;12.00;;;10.80;;
13343;SDS011;6741;48.964;9.406;2022-09-25T11:46:40;11.90;;;10.40;;
13343;SDS011;6741;48.964;9.406;2022-09-25T11:49:16;12.02;;;9.45;;
13343;SDS011;6741;48.964;9.406;2022-09-25T11:54:47;8.15;;;6.93;;
13343;SDS011;6741;48.964;9.406;2022-09-25T11:57:42;7.28;;;6.43;;
13343;SDS011;6741;48.964;9.406;2022-09-25T12:00:20;6.28;;;5.68;;
13343;SDS011;6741;48.964;9.406;2022-09-25T12:02:55;6.97;;;6.28;;
13343;SDS011;6741;48.964;9.406;2022-09-25T12:05:37;7.60;;;5.60;;
13343;SDS011;6741;48.964;9.406;2022-09-25T12:08:18;6.25;;;5.65;;
13343;SDS011;6741;48.964;9.406;2022-09-25T12:10:54;6.20;;;5.65;;
13343;SDS011;6741;48.964;9.406;2022-09-25T12:13:31;5.93;;;5.40;;
13343;SDS011;6741;48.964;9.406;2022-09-25T12:16:06;6.03;;;5.43;;
13343;SDS011;6741;48.964;9.406;2022-09-25T12:19:00;6.90;;;6.00;;
13343;SDS011;6741;48.964;9.406;2022-09-25T12:21:36;6.85;;;6.25;;
13343;SDS011;6741;48.964;9.406;2022-09-25T12:24:12;7.53;;;5.95;;
13343;SDS011;6741;48.964;9.406;2022-09-25T12:26:51;8.88;;;7.50;;
13343;SDS011;6741;48.964;9.406;2022-09-25T12:29:30;10.75;;;6.72;;
13343;SDS011;6741;48.964;9.406;2022-09-25T12:32:15;7.60;;;6.90;;
13343;SDS011;6741;48.964;9.406;2022-09-25T12:34:57;8.23;;;7.40;;
13343;SDS011;6741;48.964;9.406;2022-09-25T12:37:37;8.63;;;7.28;;
13343;SDS011;6741;48.964;9.406;2022-09-25T12:40:12;8.68;;;6.68;;
13343;SDS011;6741;48.964;9.406;2022-09-25T12:42:46;7.90;;;7.10;;
13343;SDS011;6741;48.964;9.406;2022-09-25T12:45:19;6.82;;;5.68;;
13343;SDS011;6741;48.964;9.406;2022-09-25T12:48:00;6.57;;;5.93;;
13343;SDS011;6741;48.964;9.406;2022-09-25T12:50:35;6.18;;;5.57;;
13343;SDS011;6741;48.964;9.406;2022-09-25T12:53:16;5.25;;;4.75;;
13343;SDS011;6741;48.964;9.406;2022-09-25T12:55:54;5.57;;;4.82;;
13343;SDS011;6741;48.964;9.406;2022-09-25T12:58:27;4.10;;;3.80;;
13343;SDS011;6741;48.964;9.406;2022-09-25T13:01:05;4.05;;;3.75;;
13343;SDS011;6741;48.964;9.406;2022-09-25T13:03:40;4.95;;;4.55;;
13343;SDS011;6741;48.964;9.406;2022-09-25T13:06:14;4.45;;;4.05;;
13343;SDS011;6741;48.964;9.406;2022-09-25T13:08:45;5.30;;;4.88;;
13343;SDS011;6741;48.964;9.406;2022-09-25T13:11:28;5.90;;;4.82;;
13343;SDS011;6741;48.964;9.406;2022-09-25T13:14:02;5.30;;;4.90;;
13343;SDS011;6741;48.964;9.406;2022-09-25T13:16:34;9.93;;;6.50;;
13343;SDS011;6741;48.964;9.406;2022-09-25T13:19:09;6.18;;;5.50;;
13343;SDS011;6741;48.964;9.406;2022-09-25T13:21:39;8.30;;;6.13;;
13343;SDS011;6741;48.964;9.406;2022-09-25T13:24:09;8.32;;;4.65;;
13343;SDS011;6741;48.964;9.406;2022-09-25T13:26:41;9.23;;;6.70;;
13343;SDS011;6741;48.964;9.406;2022-09-25T13:29:23;4.68;;;4.28;;
13343;SDS011;6741;48.964;9.406;2022-09-25T13:32:01;6.53;;;5.90;;
13343;SDS011;6741;48.964;9.406;2022-09-25T13:34:32;5.03;;;4.05;;
13343;SDS011;6741;48.964;9.406;2022-09-25T13:37:05;3.25;;;3.03;;
13343;SDS011;6741;48.964;9.406;2022-09-25T13:39:34;3.58;;;3.30;;
13343;SDS011;6741;48.964;9.406;2022-09-25T13:42:23;3.80;;;3.38;;
13343;SDS011;6741;48.964;9.406;2022-09-25T13:45:04;3.55;;;3.25;;
13343;SDS011;6741;48.964;9.406;2022-09-25T13:48:00;2.95;;;2.75;;
13343;SDS011;6741;48.964;9.406;2022-09-25T13:50:40;2.90;;;2.70;;
13343;SDS011;6741;48.964;9.406;2022-09-25T13:53:14;2.90;;;2.60;;
13343;SDS011;6741;48.964;9.406;2022-09-25T14:05:16;3.90;;;3.60;;
13343;SDS011;6741;48.964;9.406;2022-09-25T14:07:46;4.70;;;4.30;;
13343;SDS011;6741;48.964;9.406;2022-09-25T14:10:20;5.55;;;5.07;;
13343;SDS011;6741;48.964;9.406;2022-09-25T14:12:47;4.90;;;4.50;;
13343;SDS011;6741;48.964;9.406;2022-09-25T14:15:23;3.65;;;3.35;;
13343;SDS011;6741;48.964;9.406;2022-09-25T14:17:54;4.93;;;4.53;;
13343;SDS011;6741;48.964;9.406;2022-09-25T14:20:33;4.40;;;4.10;;
13343;SDS011;6741;48.964;9.406;2022-09-25T14:23:04;8.10;;;5.22;;
13343;SDS011;6741;48.964;9.406;2022-09-25T14:25:38;7.55;;;6.22;;
13343;SDS011;6741;48.964;9.406;2022-09-25T14:28:16;4.78;;;4.38;;
13343;SDS011;6741;48.964;9.406;2022-09-25T14:30:52;4.57;;;4.00;;
13343;SDS011;6741;48.964;9.406;2022-09-25T14:33:50;4.93;;;4.53;;
13343;SDS011;6741;48.964;9.406;2022-09-25T14:36:30;5.03;;;4.63;;
13343;SDS011;6741;48.964;9.406;2022-09-25T14:42:06;6.47;;;5.88;;
13343;SDS011;6741;48.964;9.406;2022-09-25T14:45:05;7.60;;;6.80;;
13343;SDS011;6741;48.964;9.406;2022-09-25T14:47:42;7.95;;;7.15;;
13343;SDS011;6741;48.964;9.406;2022-09-25T14:50:16;7.57;;;6.88;;
13343;SDS011;6741;48.964;9.406;2022-09-25T14:52:47;7.05;;;6.45;;
13343;SDS011;6741;48.964;9.406;2022-09-25T14:55:16;8.85;;;7.95;;
13343;SDS011;6741;48.964;9.406;2022-09-25T14:57:46;8.70;;;7.75;;
13343;SDS011;6741;48.964;9.406;2022-09-25T15:00:16;8.60;;;7.80;;
13343;SDS011;6741;48.964;9.406;2022-09-25T15:02:45;6.67;;;6.07;;
13343;SDS011;6741;48.964;9.406;2022-09-25T15:05:15;6.13;;;5.63;;
13343;SDS011;6741;48.964;9.406;2022-09-25T15:07:44;6.07;;;5.57;;
13343;SDS011;6741;48.964;9.406;2022-09-25T15:10:23;6.23;;;5.73;;
13343;SDS011;6741;48.964;9.406;2022-09-25T15:13:03;6.30;;;5.80;;
13343;SDS011;6741;48.964;9.406;2022-09-25T15:15:31;5.80;;;5.30;;
13343;SDS011;6741;48.964;9.406;2022-09-25T15:17:59;6.93;;;6.33;;
13343;SDS011;6741;48.964;9.406;2022-09-25T15:20:27;7.30;;;6.67;;
13343;SDS011;6741;48.964;9.406;2022-09-25T15:22:57;7.30;;;6.60;;
13343;SDS011;6741;48.964;9.406;2022-09-25T15:25:27;7.13;;;6.43;;
13343;SDS011;6741;48.964;9.406;2022-09-25T15:27:59;6.93;;;6.33;;
13343;SDS011;6741;48.964;9.406;2022-09-25T15:30:26;7.07;;;6.47;;